sensor_id;sensor_type;location;lat;lon;timestamp;P1;durP1;ratioP1;P2;durP2;ratioP2
29538;SDS011;16482;51.046;4.498;2022-07-10T00:01:01;3.35;;;2.60;;
29538;SDS011;16482;51.046;4.498;2022-07-10T00:03:30;3.83;;;2.40;;
29538;SDS011;16482;51.046;4.498;2022-07-10T00:05:58;2.65;;;2.35;;
29538;SDS011;16482;51.046;4.498;2022-07-10T00:08:30;3.88;;;2.60;;
29538;SDS011;16482;51.046;4.498;2022-07-10T00:10:58;3.35;;;2.55;;
29538;SDS011;16482;51.046;4.498;2022-07-10T00:13:36;3.20;;;2.55;;
29538;SDS011;16482;51.046;4.498;2022-07-10T00:16:01;3.00;;;2.38;;
29538;SDS011;16482;51.046;4.498;2022-07-10T00:18:30;3.38;;;2.70;;
29538;SDS011;16482;51.046;4.498;2022-07-10T00:21:03;3.35;;;2.38;;
29538;SDS011;16482;51.046;4.498;2022-07-10T00:23:30;2.97;;;2.58;;
29538;SDS011;16482;51.046;4.498;2022-07-10T00:26:05;4.22;;;2.53;;
29538;SDS011;16482;51.046;4.498;2022-07-10T00:28:30;3.42;;;2.58;;
29538;SDS011;16482;51.046;4.498;2022-07-10T00:30:59;3.97;;;2.70;;
29538;SDS011;16482;51.046;4.498;2022-07-10T00:33:34;3.10;;;2.42;;
29538;SDS011;16482;51.046;4.498;2022-07-10T00:36:00;2.85;;;2.42;;
29538;SDS011;16482;51.046;4.498;2022-07-10T00:38:35;3.08;;;2.60;;
29538;SDS011;16482;51.046;4.498;2022-07-10T00:41:00;2.60;;;2.30;;
29538;SDS011;16482;51.046;4.498;2022-07-10T00:43:33;3.70;;;2.50;;
29538;SDS011;16482;51.046;4.498;2022-07-10T00:46:30;4.03;;;2.65;;
29538;SDS011;16482;51.046;4.498;2022-07-10T00:48:57;3.40;;;2.75;;
29538;SDS011;16482;51.046;4.498;2022-07-10T00:51:24;3.55;;;2.78;;
29538;SDS011;16482;51.046;4.498;2022-07-10T00:53:51;2.90;;;2.42;;
29538;SDS011;16482;51.046;4.498;2022-07-10T00:56:21;3.30;;;2.50;;
29538;SDS011;16482;51.046;4.498;2022-07-10T00:58:49;3.78;;;2.60;;
29538;SDS011;16482;51.046;4.498;2022-07-10T01:01:15;3.55;;;2.67;;
29538;SDS011;16482;51.046;4.498;2022-07-10T01:03:42;3.15;;;2.80;;
29538;SDS011;16482;51.046;4.498;2022-07-10T01:06:11;3.13;;;2.40;;
29538;SDS011;16482;51.046;4.498;2022-07-10T01:08:40;2.60;;;2.30;;
29538;SDS011;16482;51.046;4.498;2022-07-10T01:11:06;3.13;;;2.55;;
29538;SDS011;16482;51.046;4.498;2022-07-10T01:13:33;4.45;;;2.75;;
29538;SDS011;16482;51.046;4.498;2022-07-10T01:16:02;4.50;;;2.30;;
29538;SDS011;16482;51.046;4.498;2022-07-10T01:18:28;3.25;;;2.50;;
29538;SDS011;16482;51.046;4.498;2022-07-10T01:20:55;2.90;;;2.38;;
29538;SDS011;16482;51.046;4.498;2022-07-10T01:23:35;3.53;;;2.50;;
29538;SDS011;16482;51.046;4.498;2022-07-10T01:26:01;2.70;;;2.30;;
29538;SDS011;16482;51.046;4.498;2022-07-10T01:28:35;3.25;;;2.30;;
29538;SDS011;16482;51.046;4.498;2022-07-10T01:31:03;3.78;;;2.58;;
29538;SDS011;16482;51.046;4.498;2022-07-10T01:33:29;3.85;;;2.45;;
29538;SDS011;16482;51.046;4.498;2022-07-10T01:36:02;2.80;;;2.25;;
29538;SDS011;16482;51.046;4.498;2022-07-10T01:38:31;2.63;;;2.05;;
29538;SDS011;16482;51.046;4.498;2022-07-10T01:41:06;3.10;;;2.50;;
29538;SDS011;16482;51.046;4.498;2022-07-10T01:43:33;2.58;;;2.20;;
29538;SDS011;16482;51.046;4.498;2022-07-10T01:46:00;2.47;;;1.98;;
29538;SDS011;16482;51.046;4.498;2022-07-10T01:48:30;3.83;;;2.22;;
29538;SDS011;16482;51.046;4.498;2022-07-10T01:50:59;2.47;;;2.28;;
29538;SDS011;16482;51.046;4.498;2022-07-10T01:53:33;3.20;;;2.30;;
29538;SDS011;16482;51.046;4.498;2022-07-10T01:56:00;2.83;;;2.45;;
29538;SDS011;16482;51.046;4.498;2022-07-10T01:58:32;2.42;;;2.10;;
29538;SDS011;16482;51.046;4.498;2022-07-10T02:01:03;3.58;;;2.30;;
29538;SDS011;16482;51.046;4.498;2022-07-10T02:03:31;2.00;;;1.80;;
29538;SDS011;16482;51.046;4.498;2022-07-10T02:06:15;3.25;;;2.45;;
29538;SDS011;16482;51.046;4.498;2022-07-10T02:08:41;3.05;;;2.10;;
29538;SDS011;16482;51.046;4.498;2022-07-10T02:11:07;2.90;;;2.08;;
29538;SDS011;16482;51.046;4.498;2022-07-10T02:13:33;2.85;;;2.28;;
29538;SDS011;16482;51.046;4.498;2022-07-10T02:16:01;2.92;;;2.20;;
29538;SDS011;16482;51.046;4.498;2022-07-10T02:18:30;2.63;;;2.20;;
29538;SDS011;16482;51.046;4.498;2022-07-10T02:21:00;4.78;;;2.30;;
29538;SDS011;16482;51.046;4.498;2022-07-10T02:23:29;3.08;;;2.28;;
29538;SDS011;16482;51.046;4.498;2022-07-10T02:26:05;3.38;;;2.30;;
29538;SDS011;16482;51.046;4.498;2022-07-10T02:28:31;3.33;;;2.15;;
29538;SDS011;16482;51.046;4.498;2022-07-10T02:31:06;2.47;;;2.25;;
29538;SDS011;16482;51.046;4.498;2022-07-10T02:33:31;3.35;;;2.05;;
29538;SDS011;16482;51.046;4.498;2022-07-10T02:36:00;2.10;;;1.90;;
29538;SDS011;16482;51.046;4.498;2022-07-10T02:38:33;3.10;;;2.40;;
29538;SDS011;16482;51.046;4.498;2022-07-10T02:40:59;2.55;;;2.00;;
29538;SDS011;16482;51.046;4.498;2022-07-10T02:43:34;3.05;;;2.30;;
29538;SDS011;16482;51.046;4.498;2022-07-10T02:46:00;2.83;;;2.17;;
29538;SDS011;16482;51.046;4.498;2022-07-10T02:48:30;2.90;;;2.30;;
29538;SDS011;16482;51.046;4.498;2022-07-10T02:51:04;3.05;;;2.10;;
29538;SDS011;16482;51.046;4.498;2022-07-10T02:53:30;2.60;;;2.30;;
29538;SDS011;16482;51.046;4.498;2022-07-10T02:56:03;2.83;;;2.40;;
29538;SDS011;16482;51.046;4.498;2022-07-10T02:58:30;3.67;;;2.33;;
29538;SDS011;16482;51.046;4.498;2022-07-10T03:01:03;2.60;;;2.00;;
29538;SDS011;16482;51.046;4.498;2022-07-10T03:03:32;3.33;;;2.25;;
29538;SDS011;16482;51.046;4.498;2022-07-10T03:06:00;3.25;;;2.00;;
29538;SDS011;16482;51.046;4.498;2022-07-10T03:08:35;2.85;;;2.00;;
29538;SDS011;16482;51.046;4.498;2022-07-10T03:11:01;2.42;;;1.92;;
29538;SDS011;16482;51.046;4.498;2022-07-10T03:13:30;3.33;;;2.08;;
29538;SDS011;16482;51.046;4.498;2022-07-10T03:16:05;2.50;;;1.98;;
29538;SDS011;16482;51.046;4.498;2022-07-10T03:18:31;5.07;;;2.30;;
29538;SDS011;16482;51.046;4.498;2022-07-10T03:21:00;3.85;;;2.40;;
29538;SDS011;16482;51.046;4.498;2022-07-10T03:23:29;3.03;;;1.70;;
29538;SDS011;16482;51.046;4.498;2022-07-10T03:26:00;2.85;;;2.10;;
29538;SDS011;16482;51.046;4.498;2022-07-10T03:28:31;2.45;;;1.90;;
29538;SDS011;16482;51.046;4.498;2022-07-10T03:31:04;2.28;;;1.80;;
29538;SDS011;16482;51.046;4.498;2022-07-10T03:33:30;2.45;;;2.03;;
29538;SDS011;16482;51.046;4.498;2022-07-10T03:35:59;2.63;;;2.05;;
29538;SDS011;16482;51.046;4.498;2022-07-10T03:38:31;2.45;;;1.70;;
29538;SDS011;16482;51.046;4.498;2022-07-10T03:40:59;2.75;;;1.60;;
29538;SDS011;16482;51.046;4.498;2022-07-10T03:43:34;3.22;;;2.10;;
29538;SDS011;16482;51.046;4.498;2022-07-10T03:46:00;2.20;;;1.85;;
29538;SDS011;16482;51.046;4.498;2022-07-10T03:48:35;2.95;;;1.95;;
29538;SDS011;16482;51.046;4.498;2022-07-10T03:51:00;3.50;;;2.28;;
29538;SDS011;16482;51.046;4.498;2022-07-10T03:53:29;2.13;;;1.50;;
29538;SDS011;16482;51.046;4.498;2022-07-10T03:56:04;2.42;;;1.90;;
29538;SDS011;16482;51.046;4.498;2022-07-10T03:58:30;2.42;;;2.10;;
29538;SDS011;16482;51.046;4.498;2022-07-10T04:00:58;2.05;;;1.75;;
29538;SDS011;16482;51.046;4.498;2022-07-10T04:03:32;3.78;;;2.15;;
29538;SDS011;16482;51.046;4.498;2022-07-10T04:06:00;3.45;;;1.95;;
29538;SDS011;16482;51.046;4.498;2022-07-10T04:08:29;2.53;;;2.10;;
29538;SDS011;16482;51.046;4.498;2022-07-10T04:11:03;3.35;;;1.90;;
29538;SDS011;16482;51.046;4.498;2022-07-10T04:13:31;2.42;;;1.80;;
29538;SDS011;16482;51.046;4.498;2022-07-10T04:16:00;2.53;;;1.60;;
29538;SDS011;16482;51.046;4.498;2022-07-10T04:18:30;2.30;;;1.92;;
29538;SDS011;16482;51.046;4.498;2022-07-10T04:20:58;2.20;;;1.80;;
29538;SDS011;16482;51.046;4.498;2022-07-10T04:23:29;2.22;;;1.83;;
29538;SDS011;16482;51.046;4.498;2022-07-10T04:26:04;1.70;;;1.60;;
29538;SDS011;16482;51.046;4.498;2022-07-10T04:28:32;2.60;;;1.90;;
29538;SDS011;16482;51.046;4.498;2022-07-10T04:31:01;2.72;;;1.70;;
29538;SDS011;16482;51.046;4.498;2022-07-10T04:33:36;2.83;;;1.90;;
29538;SDS011;16482;51.046;4.498;2022-07-10T04:36:02;3.22;;;1.83;;
29538;SDS011;16482;51.046;4.498;2022-07-10T04:38:35;3.03;;;1.63;;
29538;SDS011;16482;51.046;4.498;2022-07-10T04:41:01;2.55;;;1.80;;
29538;SDS011;16482;51.046;4.498;2022-07-10T04:43:29;2.85;;;1.80;;
29538;SDS011;16482;51.046;4.498;2022-07-10T04:46:01;2.78;;;1.80;;
29538;SDS011;16482;51.046;4.498;2022-07-10T04:48:29;2.85;;;1.77;;
29538;SDS011;16482;51.046;4.498;2022-07-10T04:50:55;2.83;;;2.03;;
29538;SDS011;16482;51.046;4.498;2022-07-10T04:53:31;3.28;;;2.03;;
29538;SDS011;16482;51.046;4.498;2022-07-10T04:55:59;3.35;;;1.98;;
29538;SDS011;16482;51.046;4.498;2022-07-10T04:58:30;2.35;;;1.77;;
29538;SDS011;16482;51.046;4.498;2022-07-10T05:00:59;3.00;;;2.15;;
29538;SDS011;16482;51.046;4.498;2022-07-10T05:03:33;3.28;;;1.80;;
29538;SDS011;16482;51.046;4.498;2022-07-10T05:06:02;2.85;;;2.17;;
29538;SDS011;16482;51.046;4.498;2022-07-10T05:08:31;2.83;;;2.13;;
29538;SDS011;16482;51.046;4.498;2022-07-10T05:11:05;2.20;;;1.80;;
29538;SDS011;16482;51.046;4.498;2022-07-10T05:13:31;2.63;;;2.00;;
29538;SDS011;16482;51.046;4.498;2022-07-10T05:16:00;3.13;;;2.00;;
29538;SDS011;16482;51.046;4.498;2022-07-10T05:18:31;2.72;;;1.90;;
29538;SDS011;16482;51.046;4.498;2022-07-10T05:21:00;3.60;;;2.25;;
29538;SDS011;16482;51.046;4.498;2022-07-10T05:23:30;2.83;;;2.08;;
29538;SDS011;16482;51.046;4.498;2022-07-10T05:26:03;2.85;;;1.98;;
29538;SDS011;16482;51.046;4.498;2022-07-10T05:28:32;2.22;;;1.92;;
29538;SDS011;16482;51.046;4.498;2022-07-10T05:31:01;2.65;;;1.90;;
29538;SDS011;16482;51.046;4.498;2022-07-10T05:33:30;4.38;;;2.28;;
29538;SDS011;16482;51.046;4.498;2022-07-10T05:36:01;2.47;;;1.95;;
29538;SDS011;16482;51.046;4.498;2022-07-10T05:38:34;2.90;;;1.98;;
29538;SDS011;16482;51.046;4.498;2022-07-10T05:41:00;2.40;;;1.85;;
29538;SDS011;16482;51.046;4.498;2022-07-10T05:43:29;2.47;;;2.15;;
29538;SDS011;16482;51.046;4.498;2022-07-10T05:46:04;3.65;;;2.40;;
29538;SDS011;16482;51.046;4.498;2022-07-10T05:48:30;3.25;;;2.30;;
29538;SDS011;16482;51.046;4.498;2022-07-10T05:51:05;2.97;;;1.98;;
29538;SDS011;16482;51.046;4.498;2022-07-10T05:53:31;5.18;;;2.35;;
29538;SDS011;16482;51.046;4.498;2022-07-10T05:56:06;2.55;;;2.22;;
29538;SDS011;16482;51.046;4.498;2022-07-10T05:58:32;3.50;;;2.10;;
29538;SDS011;16482;51.046;4.498;2022-07-10T06:01:01;2.80;;;2.22;;
29538;SDS011;16482;51.046;4.498;2022-07-10T06:03:30;3.38;;;2.30;;
29538;SDS011;16482;51.046;4.498;2022-07-10T06:06:00;3.33;;;2.30;;
29538;SDS011;16482;51.046;4.498;2022-07-10T06:08:31;3.10;;;1.85;;
29538;SDS011;16482;51.046;4.498;2022-07-10T06:11:04;3.50;;;2.15;;
29538;SDS011;16482;51.046;4.498;2022-07-10T06:13:33;5.03;;;2.15;;
29538;SDS011;16482;51.046;4.498;2022-07-10T06:16:02;5.97;;;2.20;;
29538;SDS011;16482;51.046;4.498;2022-07-10T06:18:31;7.18;;;2.05;;
29538;SDS011;16482;51.046;4.498;2022-07-10T06:21:04;4.75;;;2.20;;
29538;SDS011;16482;51.046;4.498;2022-07-10T06:23:30;5.10;;;2.17;;
29538;SDS011;16482;51.046;4.498;2022-07-10T06:26:03;5.65;;;2.30;;
29538;SDS011;16482;51.046;4.498;2022-07-10T06:28:33;5.00;;;2.33;;
29538;SDS011;16482;51.046;4.498;2022-07-10T06:31:00;5.15;;;2.00;;
29538;SDS011;16482;51.046;4.498;2022-07-10T06:33:36;4.32;;;1.85;;
29538;SDS011;16482;51.046;4.498;2022-07-10T06:36:02;10.23;;;2.72;;
29538;SDS011;16482;51.046;4.498;2022-07-10T06:38:32;5.95;;;2.45;;
29538;SDS011;16482;51.046;4.498;2022-07-10T06:41:06;4.75;;;1.92;;
29538;SDS011;16482;51.046;4.498;2022-07-10T06:43:32;6.40;;;1.92;;
29538;SDS011;16482;51.046;4.498;2022-07-10T06:46:01;9.45;;;2.33;;
29538;SDS011;16482;51.046;4.498;2022-07-10T06:48:30;4.05;;;1.88;;
29538;SDS011;16482;51.046;4.498;2022-07-10T06:51:06;9.90;;;2.20;;
29538;SDS011;16482;51.046;4.498;2022-07-10T06:53:32;9.60;;;2.33;;
29538;SDS011;16482;51.046;4.498;2022-07-10T06:56:01;6.35;;;2.00;;
29538;SDS011;16482;51.046;4.498;2022-07-10T06:58:30;4.57;;;1.98;;
29538;SDS011;16482;51.046;4.498;2022-07-10T07:00:58;4.90;;;2.10;;
29538;SDS011;16482;51.046;4.498;2022-07-10T07:03:29;4.40;;;1.92;;
29538;SDS011;16482;51.046;4.498;2022-07-10T07:06:03;6.57;;;1.92;;
29538;SDS011;16482;51.046;4.498;2022-07-10T07:08:36;7.63;;;2.13;;
29538;SDS011;16482;51.046;4.498;2022-07-10T07:11:03;9.05;;;2.03;;
29538;SDS011;16482;51.046;4.498;2022-07-10T07:13:31;3.95;;;1.60;;
29538;SDS011;16482;51.046;4.498;2022-07-10T07:15:59;5.10;;;2.22;;
29538;SDS011;16482;51.046;4.498;2022-07-10T07:18:35;7.05;;;1.58;;
29538;SDS011;16482;51.046;4.498;2022-07-10T07:21:02;6.53;;;2.17;;
29538;SDS011;16482;51.046;4.498;2022-07-10T07:23:46;5.38;;;1.88;;
29538;SDS011;16482;51.046;4.498;2022-07-10T07:26:12;5.40;;;2.15;;
29538;SDS011;16482;51.046;4.498;2022-07-10T07:28:38;6.72;;;1.80;;
29538;SDS011;16482;51.046;4.498;2022-07-10T07:31:04;4.07;;;1.75;;
29538;SDS011;16482;51.046;4.498;2022-07-10T07:33:30;7.38;;;2.00;;
29538;SDS011;16482;51.046;4.498;2022-07-10T07:36:03;8.10;;;2.38;;
29538;SDS011;16482;51.046;4.498;2022-07-10T07:38:31;6.05;;;2.00;;
29538;SDS011;16482;51.046;4.498;2022-07-10T07:40:59;5.50;;;1.55;;
29538;SDS011;16482;51.046;4.498;2022-07-10T07:43:35;4.55;;;1.80;;
29538;SDS011;16482;51.046;4.498;2022-07-10T07:46:03;8.23;;;2.67;;
29538;SDS011;16482;51.046;4.498;2022-07-10T07:48:32;7.35;;;2.40;;
29538;SDS011;16482;51.046;4.498;2022-07-10T07:51:07;6.20;;;2.75;;
29538;SDS011;16482;51.046;4.498;2022-07-10T07:53:33;5.50;;;1.90;;
29538;SDS011;16482;51.046;4.498;2022-07-10T07:56:01;4.95;;;2.00;;
29538;SDS011;16482;51.046;4.498;2022-07-10T07:58:35;5.43;;;1.90;;
29538;SDS011;16482;51.046;4.498;2022-07-10T08:01:01;4.85;;;1.95;;
29538;SDS011;16482;51.046;4.498;2022-07-10T08:03:30;8.95;;;2.67;;
29538;SDS011;16482;51.046;4.498;2022-07-10T08:06:03;5.40;;;2.47;;
29538;SDS011;16482;51.046;4.498;2022-07-10T08:08:32;5.80;;;2.13;;
29538;SDS011;16482;51.046;4.498;2022-07-10T08:11:06;6.63;;;2.25;;
29538;SDS011;16482;51.046;4.498;2022-07-10T08:13:32;9.27;;;2.40;;
29538;SDS011;16482;51.046;4.498;2022-07-10T08:16:02;6.05;;;2.20;;
29538;SDS011;16482;51.046;4.498;2022-07-10T08:18:30;6.28;;;2.40;;
29538;SDS011;16482;51.046;4.498;2022-07-10T08:21:01;8.40;;;2.50;;
29538;SDS011;16482;51.046;4.498;2022-07-10T08:23:30;8.82;;;2.45;;
29538;SDS011;16482;51.046;4.498;2022-07-10T08:26:05;9.27;;;2.55;;
29538;SDS011;16482;51.046;4.498;2022-07-10T08:28:38;7.95;;;2.55;;
29538;SDS011;16482;51.046;4.498;2022-07-10T08:31:07;10.65;;;2.42;;
29538;SDS011;16482;51.046;4.498;2022-07-10T08:33:33;6.68;;;2.28;;
29538;SDS011;16482;51.046;4.498;2022-07-10T08:36:02;9.45;;;2.33;;
29538;SDS011;16482;51.046;4.498;2022-07-10T08:38:31;7.32;;;2.33;;
29538;SDS011;16482;51.046;4.498;2022-07-10T08:41:00;6.30;;;2.17;;
29538;SDS011;16482;51.046;4.498;2022-07-10T08:43:31;8.32;;;2.38;;
29538;SDS011;16482;51.046;4.498;2022-07-10T08:46:00;7.28;;;2.25;;
29538;SDS011;16482;51.046;4.498;2022-07-10T08:48:32;7.93;;;2.70;;
29538;SDS011;16482;51.046;4.498;2022-07-10T08:51:01;4.82;;;2.10;;
29538;SDS011;16482;51.046;4.498;2022-07-10T08:53:31;5.78;;;2.28;;
29538;SDS011;16482;51.046;4.498;2022-07-10T08:56:00;4.80;;;2.00;;
29538;SDS011;16482;51.046;4.498;2022-07-10T08:58:29;4.18;;;2.03;;
29538;SDS011;16482;51.046;4.498;2022-07-10T09:01:05;5.28;;;2.03;;
29538;SDS011;16482;51.046;4.498;2022-07-10T09:03:31;7.60;;;2.38;;
29538;SDS011;16482;51.046;4.498;2022-07-10T09:06:04;6.68;;;2.72;;
29538;SDS011;16482;51.046;4.498;2022-07-10T09:08:32;4.95;;;2.22;;
29538;SDS011;16482;51.046;4.498;2022-07-10T09:11:18;5.07;;;2.67;;
29538;SDS011;16482;51.046;4.498;2022-07-10T09:13:51;6.03;;;2.55;;
29538;SDS011;16482;51.046;4.498;2022-07-10T09:16:30;6.65;;;2.35;;
29538;SDS011;16482;51.046;4.498;2022-07-10T09:19:20;7.93;;;2.63;;
29538;SDS011;16482;51.046;4.498;2022-07-10T09:21:55;7.28;;;2.55;;
29538;SDS011;16482;51.046;4.498;2022-07-10T09:24:37;7.45;;;2.85;;
29538;SDS011;16482;51.046;4.498;2022-07-10T09:27:06;6.03;;;2.42;;
29538;SDS011;16482;51.046;4.498;2022-07-10T09:29:55;7.38;;;2.90;;
29538;SDS011;16482;51.046;4.498;2022-07-10T09:32:24;5.80;;;2.28;;
29538;SDS011;16482;51.046;4.498;2022-07-10T09:34:51;5.38;;;2.10;;
29538;SDS011;16482;51.046;4.498;2022-07-10T09:37:43;5.68;;;2.40;;
29538;SDS011;16482;51.046;4.498;2022-07-10T09:40:11;4.68;;;2.40;;
29538;SDS011;16482;51.046;4.498;2022-07-10T09:42:46;6.03;;;1.90;;
29538;SDS011;16482;51.046;4.498;2022-07-10T09:50:27;4.80;;;2.45;;
29538;SDS011;16482;51.046;4.498;2022-07-10T09:53:04;5.50;;;2.35;;
29538;SDS011;16482;51.046;4.498;2022-07-10T09:55:35;5.25;;;2.60;;
29538;SDS011;16482;51.046;4.498;2022-07-10T09:58:06;4.38;;;2.20;;
29538;SDS011;16482;51.046;4.498;2022-07-10T10:00:33;4.85;;;2.22;;
29538;SDS011;16482;51.046;4.498;2022-07-10T10:03:01;4.90;;;2.30;;
29538;SDS011;16482;51.046;4.498;2022-07-10T10:05:39;3.85;;;2.00;;
29538;SDS011;16482;51.046;4.498;2022-07-10T10:11:19;7.00;;;2.42;;
29538;SDS011;16482;51.046;4.498;2022-07-10T10:13:48;5.03;;;2.10;;
29538;SDS011;16482;51.046;4.498;2022-07-10T10:16:15;4.07;;;2.05;;
29538;SDS011;16482;51.046;4.498;2022-07-10T10:18:44;4.25;;;2.15;;
29538;SDS011;16482;51.046;4.498;2022-07-10T10:21:29;6.35;;;2.20;;
29538;SDS011;16482;51.046;4.498;2022-07-10T10:23:55;4.47;;;1.95;;
29538;SDS011;16482;51.046;4.498;2022-07-10T10:26:22;5.78;;;2.38;;
29538;SDS011;16482;51.046;4.498;2022-07-10T10:28:51;7.13;;;3.10;;
29538;SDS011;16482;51.046;4.498;2022-07-10T10:31:18;5.63;;;2.13;;
29538;SDS011;16482;51.046;4.498;2022-07-10T10:33:48;6.97;;;2.47;;
29538;SDS011;16482;51.046;4.498;2022-07-10T10:39:10;7.75;;;2.63;;
29538;SDS011;16482;51.046;4.498;2022-07-10T10:44:22;5.65;;;2.85;;
29538;SDS011;16482;51.046;4.498;2022-07-10T10:49:23;5.38;;;2.63;;
29538;SDS011;16482;51.046;4.498;2022-07-10T10:52:11;7.95;;;2.90;;
29538;SDS011;16482;51.046;4.498;2022-07-10T10:57:41;6.88;;;2.38;;
29538;SDS011;16482;51.046;4.498;2022-07-10T11:00:29;5.72;;;2.35;;
29538;SDS011;16482;51.046;4.498;2022-07-10T11:06:07;3.28;;;2.15;;
29538;SDS011;16482;51.046;4.498;2022-07-10T11:08:39;2.67;;;2.08;;
29538;SDS011;16482;51.046;4.498;2022-07-10T11:14:07;4.80;;;2.63;;
29538;SDS011;16482;51.046;4.498;2022-07-10T11:16:34;4.78;;;2.45;;
29538;SDS011;16482;51.046;4.498;2022-07-10T11:19:00;3.28;;;2.15;;
29538;SDS011;16482;51.046;4.498;2022-07-10T11:21:28;4.65;;;2.17;;
29538;SDS011;16482;51.046;4.498;2022-07-10T11:26:36;4.18;;;1.95;;
29538;SDS011;16482;51.046;4.498;2022-07-10T11:29:26;4.90;;;1.90;;
29538;SDS011;16482;51.046;4.498;2022-07-10T11:31:53;5.25;;;2.42;;
29538;SDS011;16482;51.046;4.498;2022-07-10T11:34:40;5.97;;;2.55;;
29538;SDS011;16482;51.046;4.498;2022-07-10T11:37:15;4.40;;;2.50;;
29538;SDS011;16482;51.046;4.498;2022-07-10T11:42:07;6.10;;;2.78;;
29538;SDS011;16482;51.046;4.498;2022-07-10T11:48:04;4.10;;;2.00;;
29538;SDS011;16482;51.046;4.498;2022-07-10T11:50:35;6.80;;;2.13;;
29538;SDS011;16482;51.046;4.498;2022-07-10T11:53:02;4.10;;;1.95;;
29538;SDS011;16482;51.046;4.498;2022-07-10T11:55:28;3.35;;;2.03;;
29538;SDS011;16482;51.046;4.498;2022-07-10T11:57:57;6.25;;;2.25;;
29538;SDS011;16482;51.046;4.498;2022-07-10T12:03:16;4.85;;;2.20;;
29538;SDS011;16482;51.046;4.498;2022-07-10T12:05:45;4.63;;;2.10;;
29538;SDS011;16482;51.046;4.498;2022-07-10T12:08:17;5.18;;;2.47;;
29538;SDS011;16482;51.046;4.498;2022-07-10T12:11:20;4.05;;;2.03;;
29538;SDS011;16482;51.046;4.498;2022-07-10T12:17:16;4.18;;;2.50;;
29538;SDS011;16482;51.046;4.498;2022-07-10T12:19:43;7.60;;;2.47;;
29538;SDS011;16482;51.046;4.498;2022-07-10T12:22:19;4.72;;;2.40;;
29538;SDS011;16482;51.046;4.498;2022-07-10T12:24:51;4.53;;;2.45;;
29538;SDS011;16482;51.046;4.498;2022-07-10T12:27:42;4.82;;;2.65;;
29538;SDS011;16482;51.046;4.498;2022-07-10T12:30:23;3.70;;;2.22;;
29538;SDS011;16482;51.046;4.498;2022-07-10T12:33:19;4.85;;;2.55;;
29538;SDS011;16482;51.046;4.498;2022-07-10T12:35:47;4.95;;;2.50;;
29538;SDS011;16482;51.046;4.498;2022-07-10T12:38:42;6.28;;;2.03;;
29538;SDS011;16482;51.046;4.498;2022-07-10T12:41:17;4.07;;;1.80;;
29538;SDS011;16482;51.046;4.498;2022-07-10T12:43:48;4.20;;;2.38;;
29538;SDS011;16482;51.046;4.498;2022-07-10T12:48:44;4.25;;;2.00;;
29538;SDS011;16482;51.046;4.498;2022-07-10T12:54:33;3.88;;;1.85;;
29538;SDS011;16482;51.046;4.498;2022-07-10T12:57:00;7.05;;;1.92;;
29538;SDS011;16482;51.046;4.498;2022-07-10T12:59:26;6.13;;;1.90;;
29538;SDS011;16482;51.046;4.498;2022-07-10T13:01:54;4.72;;;3.00;;
29538;SDS011;16482;51.046;4.498;2022-07-10T13:04:26;4.75;;;3.45;;
29538;SDS011;16482;51.046;4.498;2022-07-10T13:06:52;4.97;;;1.80;;
29538;SDS011;16482;51.046;4.498;2022-07-10T13:09:22;4.82;;;2.00;;
29538;SDS011;16482;51.046;4.498;2022-07-10T13:11:58;2.60;;;1.85;;
29538;SDS011;16482;51.046;4.498;2022-07-10T13:14:24;6.65;;;2.17;;
29538;SDS011;16482;51.046;4.498;2022-07-10T13:16:50;4.63;;;2.10;;
29538;SDS011;16482;51.046;4.498;2022-07-10T13:19:16;4.85;;;3.00;;
29538;SDS011;16482;51.046;4.498;2022-07-10T13:21:58;4.50;;;2.78;;
29538;SDS011;16482;51.046;4.498;2022-07-10T13:24:24;5.55;;;3.00;;
29538;SDS011;16482;51.046;4.498;2022-07-10T13:26:54;4.25;;;3.33;;
29538;SDS011;16482;51.046;4.498;2022-07-10T13:29:31;5.93;;;2.42;;
29538;SDS011;16482;51.046;4.498;2022-07-10T13:31:58;6.30;;;2.70;;
29538;SDS011;16482;51.046;4.498;2022-07-10T13:34:24;4.82;;;3.20;;
29538;SDS011;16482;51.046;4.498;2022-07-10T13:36:52;4.95;;;3.25;;
29538;SDS011;16482;51.046;4.498;2022-07-10T13:39:20;4.88;;;3.15;;
29538;SDS011;16482;51.046;4.498;2022-07-10T13:41:55;5.72;;;3.40;;
29538;SDS011;16482;51.046;4.498;2022-07-10T13:44:24;5.53;;;3.63;;
29538;SDS011;16482;51.046;4.498;2022-07-10T13:46:52;4.90;;;4.13;;
29538;SDS011;16482;51.046;4.498;2022-07-10T13:49:21;6.20;;;3.60;;
29538;SDS011;16482;51.046;4.498;2022-07-10T13:51:57;4.57;;;3.42;;
29538;SDS011;16482;51.046;4.498;2022-07-10T13:54:23;4.03;;;3.38;;
29538;SDS011;16482;51.046;4.498;2022-07-10T13:56:58;6.40;;;3.38;;
29538;SDS011;16482;51.046;4.498;2022-07-10T13:59:24;4.55;;;3.28;;
29538;SDS011;16482;51.046;4.498;2022-07-10T14:01:54;5.20;;;3.20;;
29538;SDS011;16482;51.046;4.498;2022-07-10T14:04:23;5.13;;;3.53;;
29538;SDS011;16482;51.046;4.498;2022-07-10T14:06:51;4.38;;;3.45;;
29538;SDS011;16482;51.046;4.498;2022-07-10T14:09:22;4.60;;;3.88;;
29538;SDS011;16482;51.046;4.498;2022-07-10T14:11:57;5.28;;;3.55;;
29538;SDS011;16482;51.046;4.498;2022-07-10T14:14:23;6.72;;;3.95;;
29538;SDS011;16482;51.046;4.498;2022-07-10T14:16:52;3.83;;;3.33;;
29538;SDS011;16482;51.046;4.498;2022-07-10T14:19:27;3.95;;;2.95;;
29538;SDS011;16482;51.046;4.498;2022-07-10T14:21:53;3.85;;;3.08;;
29538;SDS011;16482;51.046;4.498;2022-07-10T14:24:22;5.07;;;3.05;;
29538;SDS011;16482;51.046;4.498;2022-07-10T14:26:51;4.22;;;3.00;;
29538;SDS011;16482;51.046;4.498;2022-07-10T14:29:21;5.78;;;3.60;;
29538;SDS011;16482;51.046;4.498;2022-07-10T14:31:50;4.80;;;3.10;;
29538;SDS011;16482;51.046;4.498;2022-07-10T14:34:19;4.50;;;3.25;;
29538;SDS011;16482;51.046;4.498;2022-07-10T14:36:52;4.68;;;3.30;;
29538;SDS011;16482;51.046;4.498;2022-07-10T14:39:20;4.18;;;3.30;;
29538;SDS011;16482;51.046;4.498;2022-07-10T14:41:51;5.28;;;3.70;;
29538;SDS011;16482;51.046;4.498;2022-07-10T14:44:20;5.45;;;3.15;;
29538;SDS011;16482;51.046;4.498;2022-07-10T14:46:55;4.32;;;3.05;;
29538;SDS011;16482;51.046;4.498;2022-07-10T14:49:21;4.60;;;3.30;;
29538;SDS011;16482;51.046;4.498;2022-07-10T14:51:54;5.53;;;3.67;;
29538;SDS011;16482;51.046;4.498;2022-07-10T14:54:23;5.95;;;3.70;;
29538;SDS011;16482;51.046;4.498;2022-07-10T14:56:52;4.65;;;3.22;;
29538;SDS011;16482;51.046;4.498;2022-07-10T14:59:20;4.75;;;3.47;;
29538;SDS011;16482;51.046;4.498;2022-07-10T15:01:54;3.50;;;3.20;;
29538;SDS011;16482;51.046;4.498;2022-07-10T15:04:22;5.95;;;3.13;;
29538;SDS011;16482;51.046;4.498;2022-07-10T15:06:53;5.85;;;2.67;;
29538;SDS011;16482;51.046;4.498;2022-07-10T15:09:22;5.28;;;2.40;;
29538;SDS011;16482;51.046;4.498;2022-07-10T15:11:57;4.07;;;2.28;;
29538;SDS011;16482;51.046;4.498;2022-07-10T15:14:23;3.13;;;2.08;;
29538;SDS011;16482;51.046;4.498;2022-07-10T15:16:53;4.30;;;2.33;;
29538;SDS011;16482;51.046;4.498;2022-07-10T15:19:26;4.97;;;2.80;;
29538;SDS011;16482;51.046;4.498;2022-07-10T15:21:55;4.45;;;2.90;;
29538;SDS011;16482;51.046;4.498;2022-07-10T15:24:24;5.82;;;3.22;;
29538;SDS011;16482;51.046;4.498;2022-07-10T15:26:52;6.43;;;3.08;;
29538;SDS011;16482;51.046;4.498;2022-07-10T15:29:25;4.25;;;2.80;;
29538;SDS011;16482;51.046;4.498;2022-07-10T15:31:51;3.22;;;2.40;;
29538;SDS011;16482;51.046;4.498;2022-07-10T15:34:17;4.05;;;2.95;;
29538;SDS011;16482;51.046;4.498;2022-07-10T15:36:54;3.28;;;2.45;;
29538;SDS011;16482;51.046;4.498;2022-07-10T15:39:28;2.83;;;2.63;;
29538;SDS011;16482;51.046;4.498;2022-07-10T15:41:54;3.05;;;2.35;;
29538;SDS011;16482;51.046;4.498;2022-07-10T15:44:22;4.50;;;3.13;;
29538;SDS011;16482;51.046;4.498;2022-07-10T15:46:53;5.45;;;3.47;;
29538;SDS011;16482;51.046;4.498;2022-07-10T15:49:25;3.85;;;2.80;;
29538;SDS011;16482;51.046;4.498;2022-07-10T15:52:00;2.55;;;2.35;;
29538;SDS011;16482;51.046;4.498;2022-07-10T15:54:26;3.88;;;2.85;;